Time;durP1;ratioP1;P1;durP2;ratioP2;P2;SDS_P1;SDS_P2;PMS_P1;PMS_P2;Temp;Humidity;BMP_temperature;BMP_pressure;BME280_temperature;BME280_humidity;BME280_pressure;Samples;Min_cycle;Max_cycle;Signal;HPM_P1;HPM_P2
2022/09/16 00:01:35;;;;;;;1.80;1.53;;;;;;;;;;5096535;28;20201;-71
2022/09/16 00:04:01;;;;;;;1.67;1.57;;;;;;;;;;5096488;28;20189;-71
2022/09/16 00:06:29;;;;;;;4.50;1.90;;;;;;;-142.65;84.24;50170.78;5096410;28;20197;-71
2022/09/16 00:08:59;;;;;;;1.70;1.60;;;;;;;-142.65;84.30;50172.78;5096290;28;20220;-71
2022/09/16 00:11:26;;;;;;;4.73;1.50;;;;;;;-142.65;83.88;50170.78;5078019;28;20670;-71
2022/09/16 00:13:52;;;;;;;1.20;1.20;;;;;;;-142.65;83.61;50170.78;5096556;28;20193;-71
2022/09/16 00:16:24;;;;;;;3.63;1.40;;;;;;;-142.65;84.21;50170.78;5096215;28;20194;-71
2022/09/16 00:18:55;;;;;;;1.43;1.33;;;;;;;-142.65;83.76;50168.78;5096329;28;20212;-71
2022/09/16 00:21:22;;;;;;;1.30;1.30;;;;;;;-142.65;83.99;50168.78;5096044;28;20209;-71
2022/09/16 00:23:48;;;;;;;1.30;1.30;;;;;;;-142.65;83.97;50168.78;5096652;28;20663;-72
2022/09/16 00:26:15;;;;;;;1.20;1.20;;;;;;;-142.65;84.12;50168.78;5096307;28;20189;-72
2022/09/16 00:28:42;;;;;;;7.03;1.40;;;;;;;-142.65;84.26;50168.78;5095928;28;20214;-72
2022/09/16 00:31:08;;;;;;;2.53;1.53;;;;;;;-142.65;84.23;50170.78;5096479;28;20185;-72
2022/09/16 00:33:35;;;;;;;1.70;1.60;;;;;;;-142.65;84.24;50174.75;5095903;28;20190;-72
2022/09/16 00:36:08;;;;;;;2.00;1.50;;;;;;;;;;5095881;28;20595;-72
2022/09/16 00:38:35;;;;;;;1.17;1.17;;;;;;;;;;5096050;28;20206;-72
2022/09/16 00:41:02;;;;;;;1.10;1.10;;;;;;;-142.65;84.54;50168.78;5095670;28;20209;-72
2022/09/16 00:43:46;;;;;;;1.43;1.33;;;;;;;-142.65;84.68;50170.78;5096005;28;20554;-72
2022/09/16 00:46:13;;;;;;;1.50;1.50;;;;;;;-142.65;84.60;50172.78;5096002;28;20197;-72
2022/09/16 00:48:39;;;;;;;2.00;1.27;;;;;;;-142.65;84.77;50170.78;5095608;28;20210;-72
2022/09/16 00:51:08;;;;;;;1.43;1.43;;;;;;;;;;5096134;28;20190;-72
2022/09/16 00:53:39;;;;;;;1.17;1.17;;;;;;;-142.65;85.08;50168.78;5095800;28;20538;-72
2022/09/16 00:56:11;;;;;;;1.27;1.20;;;;;;;-142.65;85.41;50162.81;5096062;28;20182;-72
2022/09/16 00:58:43;;;;;;;2.47;1.37;;;;;;;-142.65;85.40;50162.81;5095478;28;20205;-72
2022/09/16 01:01:09;;;;;;;3.80;1.40;;;;;;;;;;5095654;28;20267;-72
2022/09/16 01:03:44;;;;;;;4.40;1.40;;;;;;;-142.65;85.39;50162.81;5095354;28;20224;-72
2022/09/16 01:06:12;;;;;;;1.27;1.20;;;;;;;-142.65;85.43;50164.81;5095605;28;20192;-72
2022/09/16 01:08:41;;;;;;;1.57;1.40;;;;;;;-142.65;85.43;50164.81;5094181;28;20571;-72
2022/09/16 01:11:08;;;;;;;1.33;1.33;;;;;;;-142.65;85.47;50162.81;5095003;28;20562;-72
2022/09/16 01:13:35;;;;;;;6.40;1.60;;;;;;;;;;5095434;28;20174;-72
2022/09/16 01:16:27;;;;;;;1.67;1.57;;;;;;;-142.65;85.55;50168.78;5095406;28;20186;-72
2022/09/16 01:18:54;;;;;;;2.83;1.50;;;;;;;-142.65;85.71;50172.78;5095156;28;20210;-72
2022/09/16 01:21:56;;;;;;;2.07;1.23;;;;;;;-142.65;85.44;50174.75;5094875;28;20212;-72
2022/09/16 01:24:47;;;;;;;3.93;1.37;;;;;;;-142.65;85.62;50172.78;5095504;28;20181;-72
2022/09/16 01:27:34;;;;;;;1.70;1.60;;;;;;;-142.65;85.61;50168.78;5095398;28;20190;-72
2022/09/16 01:30:07;;;;;;;1.67;1.57;;;;;;;;;;5094823;28;20596;-71
2022/09/16 01:33:00;;;;;;;6.00;1.40;;;;;;;-142.65;85.71;50170.78;5095050;28;20182;-71
2022/09/16 01:35:50;;;;;;;3.77;1.40;;;;;;;-142.65;85.56;50168.78;5095030;28;20173;-71
2022/09/16 01:38:40;;;;;;;1.60;1.57;;;;;;;-142.65;85.90;50164.81;5094902;28;20210;-71
2022/09/16 01:41:28;;;;;;;1.40;1.30;;;;;;;-142.65;85.57;50164.81;5095116;28;20190;-72
2022/09/16 01:44:01;;;;;;;1.30;1.23;;;;;;;;;;5094545;28;20182;-72
2022/09/16 01:46:44;;;;;;;1.30;1.30;;;;;;;-142.65;85.33;50172.78;5094813;28;20244;-72
2022/09/16 01:49:20;;;;;;;1.57;1.57;;;;;;;-142.65;85.44;50170.78;5094568;28;20221;-72
2022/09/16 01:52:01;;;;;;;1.70;1.60;;;;;;;-142.65;85.51;50164.81;5094746;28;20170;-72
2022/09/16 01:54:37;;;;;;;1.60;1.60;;;;;;;-142.65;85.52;50164.81;5094685;28;20166;-72
2022/09/16 01:57:16;;;;;;;1.87;1.77;;;;;;;-142.65;85.66;50164.81;5095140;28;20521;-72
2022/09/16 01:59:52;;;;;;;3.60;1.53;;;;;;;-142.65;85.38;50170.78;5094218;28;20644;-72
2022/09/16 02:02:37;;;;;;;1.87;1.87;;;;;;;-142.65;85.17;50172.78;5094501;28;20624;-72
2022/09/16 02:05:10;;;;;;;3.47;2.47;;;;;;;-142.65;85.41;50168.78;5094453;28;20181;-72
2022/09/16 02:07:44;;;;;;;7.40;2.10;;;;;;;-142.65;85.23;50172.78;5094346;28;20576;-72
2022/09/16 02:10:27;;;;;;;2.60;2.20;;;;;;;-142.65;85.90;50170.78;5094937;28;20491;-72
2022/09/16 02:12:56;;;;;;;2.40;2.20;;;;;;;;;;5093993;28;20196;-72
2022/09/16 02:15:26;;;;;;;2.17;2.17;;;;;;;-142.65;85.90;50168.78;5093964;28;20236;-72
2022/09/16 02:18:00;;;;;;;3.40;2.30;;;;;;;-142.65;86.01;50162.81;5093841;28;20214;-73
2022/09/16 02:20:29;;;;;;;5.50;1.97;;;;;;;-142.65;85.92;50164.81;5093970;28;20217;-72
2022/09/16 02:22:58;;;;;;;3.17;2.17;;;;;;;;;;5094083;28;20197;-72
2022/09/16 02:25:27;;;;;;;2.00;1.90;;;;;;;-142.65;85.49;50170.78;5094110;28;20196;-72
2022/09/16 02:27:56;;;;;;;1.60;1.60;;;;;;;-142.65;85.92;50172.78;5094104;28;20216;-72
2022/09/16 02:30:23;;;;;;;3.03;1.83;;;;;;;-142.65;85.56;50168.78;5093686;28;20186;-72
2022/09/16 02:33:00;;;;;;;5.30;1.50;;;;;;;-142.65;85.74;50168.78;5093689;28;20192;-72
2022/09/16 02:35:28;;;;;;;1.50;1.40;;;;;;;-142.65;85.45;50174.75;5076026;28;20535;-72
2022/09/16 02:38:03;;;;;;;1.83;1.73;;;;;;;-142.65;85.41;50168.78;5093530;28;20221;-72
2022/09/16 02:40:50;;;;;;;1.60;1.50;;;;;;;-142.65;85.38;50170.78;5075513;28;20205;-72
2022/09/16 02:43:17;;;;;;;3.87;1.53;;;;;;;;;;5093878;28;20543;-72
2022/09/16 02:46:03;;;;;;;2.87;2.13;;;;;;;-142.65;85.67;50172.78;5093468;28;20191;-72
2022/09/16 02:48:54;;;;;;;2.07;1.97;;;;;;;-142.65;85.63;50176.75;5093750;28;20739;-72
2022/09/16 02:51:48;;;;;;;1.40;1.40;;;;;;;-142.65;85.48;50174.75;5093785;28;20174;-72
2022/09/16 02:54:29;;;;;;;1.53;1.43;;;;;;;-142.65;85.19;50168.78;5093998;28;20181;-72
2022/09/16 02:56:56;;;;;;;3.17;1.87;;;;;;;-142.65;85.32;50180.75;5093695;28;20178;-72
2022/09/16 02:59:24;;;;;;;7.80;1.47;;;;;;;-142.65;85.55;50168.78;5093294;28;20710;-72
2022/09/16 03:01:50;;;;;;;1.47;1.47;;;;;;;-142.65;85.52;50170.78;5075175;28;20216;-72
2022/09/16 03:04:18;;;;;;;1.60;1.47;;;;;;;;;;5075446;28;20190;-72
2022/09/16 03:06:45;;;;;;;1.80;1.70;;;;;;;-142.65;85.37;50170.78;5093571;28;20188;-72
2022/09/16 03:09:13;;;;;;;2.20;1.70;;;;;;;;;;5093211;28;20571;-71
2022/09/16 03:11:51;;;;;;;1.27;1.20;;;;;;;-142.65;85.43;50168.78;5093167;28;20204;-71
2022/09/16 03:14:44;;;;;;;2.83;1.63;;;;;;;-142.65;85.19;50168.78;5093570;28;20174;-71
2022/09/16 03:17:29;;;;;;;4.00;1.97;;;;;;;;;;5093480;28;20170;-72
2022/09/16 03:20:12;;;;;;;1.60;1.50;;;;;;;;;;5093737;28;20181;-71
2022/09/16 03:22:50;;;;;;;2.10;1.77;;;;;;;;;;5093733;28;20189;-72
2022/09/16 03:25:38;;;;;;;2.60;1.40;;;;;;;-142.65;85.80;50172.78;5093443;28;20173;-72
2022/09/16 03:28:18;;;;;;;1.43;1.43;;;;;;;-142.65;85.76;50172.78;5093337;28;20210;-71
2022/09/16 03:30:54;;;;;;;3.67;1.50;;;;;;;-142.65;85.54;50170.78;5093102;28;20174;-72
2022/09/16 03:33:29;;;;;;;3.43;1.60;;;;;;;-142.65;85.45;50170.78;5096052;28;20192;-72
2022/09/16 03:36:02;;;;;;;3.93;1.57;;;;;;;-142.65;85.24;50162.81;5097635;28;20182;-72
2022/09/16 03:38:29;;;;;;;1.87;1.63;;;;;;;;;;5097059;28;20696;-71
2022/09/16 03:40:55;;;;;;;2.10;1.50;;;;;;;-142.65;85.97;50168.78;5097194;28;20680;-71
2022/09/16 03:43:22;;;;;;;4.30;1.87;;;;;;;-142.65;86.33;50172.78;5096864;28;20189;-71
2022/09/16 03:45:50;;;;;;;7.93;2.23;;;;;;;-142.65;85.79;50180.75;5096818;28;20672;-71
2022/09/16 03:48:16;;;;;;;8.50;1.80;;;;;;;-142.65;85.90;50174.75;5096741;28;20206;-71
2022/09/16 03:50:42;;;;;;;2.27;2.17;;;;;;;;;;5096705;28;20182;-71
2022/09/16 03:53:09;;;;;;;2.77;2.50;;;;;;;-142.65;85.92;50170.78;5097210;28;20200;-71
2022/09/16 03:55:35;;;;;;;6.90;2.97;;;;;;;-142.65;86.20;50168.78;5097325;28;20201;-72
2022/09/16 03:58:02;;;;;;;2.43;2.40;;;;;;;-142.65;86.50;50170.78;5096563;28;20214;-73
2022/09/16 04:00:28;;;;;;;6.77;2.80;;;;;;;-142.65;86.33;50170.78;5096759;28;20255;-72
2022/09/16 04:02:55;;;;;;;3.20;2.87;;;;;;;-142.65;86.50;50164.81;5096487;28;20191;-72
2022/09/16 04:05:21;;;;;;;4.40;2.40;;;;;;;-142.65;86.86;50168.78;5096517;28;20231;-72
2022/09/16 04:07:48;;;;;;;3.93;2.70;;;;;;;;;;5096375;28;20206;-71
2022/09/16 04:10:15;;;;;;;2.63;2.43;;;;;;;-142.65;86.68;50170.78;5096393;28;20182;-72
2022/09/16 04:12:41;;;;;;;3.70;2.83;;;;;;;;;;5096220;28;20671;-72
2022/09/16 04:15:08;;;;;;;2.47;2.27;;;;;;;;;;5096550;28;20189;-72
2022/09/16 04:17:34;;;;;;;2.63;2.53;;;;;;;;;;5096680;28;20194;-72
2022/09/16 04:20:01;;;;;;;2.83;2.33;;;;;;;-142.65;86.74;50162.81;5096555;28;20232;-72
2022/09/16 04:22:29;;;;;;;7.10;2.17;;;;;;;-142.65;86.60;50172.78;5096327;28;20206;-72
2022/09/16 04:24:56;;;;;;;4.37;2.23;;;;;;;-142.65;86.74;50172.78;5096660;28;20185;-72
2022/09/16 04:27:22;;;;;;;2.50;2.30;;;;;;;-142.65;86.55;50172.78;5096006;28;20182;-71
2022/09/16 04:29:49;;;;;;;7.43;2.07;;;;;;;-142.65;86.66;50162.81;5096097;28;20197;-71
2022/09/16 04:32:15;;;;;;;5.13;1.83;;;;;;;-142.65;86.42;50170.78;5096613;28;20196;-71
2022/09/16 04:34:42;;;;;;;2.07;2.07;;;;;;;;;;5096515;28;20186;-71
2022/09/16 04:37:08;;;;;;;1.93;1.90;;;;;;;;;;5096625;28;20201;-72
2022/09/16 04:39:34;;;;;;;2.13;1.83;;;;;;;-142.65;86.56;50176.75;5096009;28;20216;-73
2022/09/16 04:42:01;;;;;;;2.50;1.97;;;;;;;-142.65;86.50;50170.78;5095910;28;20198;-72
2022/09/16 04:44:29;;;;;;;3.40;1.83;;;;;;;-142.65;86.63;50172.78;5095725;28;20182;-72
2022/09/16 04:46:55;;;;;;;2.13;1.40;;;;;;;-142.65;86.36;50176.75;5095927;28;20540;-72
2022/09/16 04:49:22;;;;;;;1.90;1.83;;;;;;;-142.65;86.22;50168.78;5095620;28;20201;-72
2022/09/16 04:51:49;;;;;;;4.30;1.87;;;;;;;;;;5095547;28;20186;-72
2022/09/16 04:54:15;;;;;;;9.13;1.50;;;;;;;-142.65;86.23;50172.78;5077457;28;20201;-72
2022/09/16 04:56:42;;;;;;;5.80;1.90;;;;;;;-142.65;86.21;50168.78;5095495;28;20193;-72
2022/09/16 04:59:09;;;;;;;2.77;1.87;;;;;;;;;;5095355;28;20202;-72
2022/09/16 05:01:36;;;;;;;5.53;1.87;;;;;;;;;;5095448;28;20677;-72
2022/09/16 05:04:05;;;;;;;2.43;1.57;;;;;;;-142.65;86.07;50172.78;5095583;28;20610;-72
2022/09/16 05:06:34;;;;;;;4.30;2.20;;;;;;;-142.65;85.98;50164.81;5095775;28;20603;-72
2022/09/16 05:09:02;;;;;;;1.30;1.30;;;;;;;-142.65;85.93;50168.78;5095136;28;20805;-72
2022/09/16 05:11:32;;;;;;;1.77;1.67;;;;;;;-142.65;85.41;50170.78;5095146;28;20196;-72
2022/09/16 05:13:59;;;;;;;2.33;1.60;;;;;;;-142.65;85.20;50164.81;5095417;28;20620;-72
2022/09/16 05:16:27;;;;;;;3.73;1.90;;;;;;;-142.65;85.05;50164.81;5095293;28;20549;-72
2022/09/16 05:18:55;;;;;;;2.03;1.67;;;;;;;-142.65;84.81;50176.75;5095515;28;20213;-72
2022/09/16 05:21:22;;;;;;;1.60;1.60;;;;;;;;;;5094699;28;20206;-72
2022/09/16 05:23:49;;;;;;;1.70;1.60;;;;;;;-142.65;84.92;50168.78;5094954;28;20220;-72
2022/09/16 05:26:19;;;;;;;1.57;1.50;;;;;;;-142.65;85.17;50170.78;5094776;28;20190;-72
2022/09/16 05:28:46;;;;;;;2.33;2.00;;;;;;;;;;5094571;28;20691;-71
2022/09/16 05:31:22;;;;;;;1.87;1.87;;;;;;;;;;5095123;28;20166;-71
2022/09/16 05:34:01;;;;;;;3.30;1.67;;;;;;;-142.65;85.36;50170.78;5094662;28;20178;-72
2022/09/16 05:36:30;;;;;;;1.47;1.47;;;;;;;-142.65;85.22;50170.78;5095224;28;20256;-72
2022/09/16 05:38:57;;;;;;;1.43;1.43;;;;;;;-142.65;85.39;50174.75;5094525;28;20214;-72
2022/09/16 05:41:43;;;;;;;1.60;1.60;;;;;;;;;;5094519;28;20190;-72
2022/09/16 05:44:10;;;;;;;6.13;2.00;;;;;;;-142.65;85.49;50168.78;5094527;28;20182;-72
2022/09/16 05:46:39;;;;;;;2.23;1.80;;;;;;;-142.65;85.73;50172.78;5094469;28;20551;-72
2022/09/16 05:49:07;;;;;;;8.17;1.77;;;;;;;-142.65;85.95;50172.78;5094372;28;20213;-72
2022/09/16 05:51:33;;;;;;;2.43;2.33;;;;;;;;;;5094294;28;20675;-72
2022/09/16 05:53:59;;;;;;;3.40;1.63;;;;;;;-142.65;86.01;50164.81;5094616;28;20555;-72
2022/09/16 05:56:28;;;;;;;1.47;1.40;;;;;;;;;;5093758;28;20197;-72
2022/09/16 05:58:56;;;;;;;1.60;1.50;;;;;;;-142.65;85.69;50168.78;5094277;28;20206;-71
2022/09/16 06:01:28;;;;;;;2.13;2.10;;;;;;;-142.65;85.63;50170.78;5094093;28;20680;-71
2022/09/16 06:03:55;;;;;;;2.93;2.37;;;;;;;-142.65;85.92;50168.78;5094237;28;20178;-72
2022/09/16 06:06:35;;;;;;;1.87;1.77;;;;;;;-142.65;85.65;50174.75;5094146;28;20190;-72
2022/09/16 06:09:08;;;;;;;3.90;1.80;;;;;;;-142.65;86.18;50168.78;5094000;28;20217;-72
2022/09/16 06:11:35;;;;;;;3.93;1.87;;;;;;;;;;5094008;28;20535;-72
2022/09/16 06:14:02;;;;;;;3.70;1.73;;;;;;;;;;5093903;28;20193;-72
2022/09/16 06:16:31;;;;;;;5.37;2.20;;;;;;;-142.65;86.25;50180.75;5094208;28;20232;-72
2022/09/16 06:19:05;;;;;;;7.03;2.03;;;;;;;-142.65;86.21;50172.78;5094405;28;20281;-71
2022/09/16 06:21:32;;;;;;;4.60;2.10;;;;;;;-142.65;86.12;50168.78;5094445;28;20243;-71
2022/09/16 06:23:58;;;;;;;5.43;2.30;;;;;;;;;;5093853;28;20181;-71
2022/09/16 06:26:25;;;;;;;3.13;2.17;;;;;;;-142.65;85.90;50168.78;5093790;28;20182;-71
2022/09/16 06:28:52;;;;;;;2.17;2.03;;;;;;;-142.65;86.33;50170.78;5093945;28;20210;-71
2022/09/16 06:31:25;;;;;;;2.73;2.20;;;;;;;-142.65;86.55;50170.78;5093977;28;20193;-72
2022/09/16 06:33:52;;;;;;;2.63;2.17;;;;;;;-142.65;86.41;50170.78;5094012;28;20174;-72
2022/09/16 06:36:26;;;;;;;3.77;2.70;;;;;;;-142.65;86.20;50162.81;5094193;28;20645;-72
2022/09/16 06:38:52;;;;;;;2.83;2.63;;;;;;;-142.65;86.17;50172.78;5094517;28;20213;-71
2022/09/16 06:41:20;;;;;;;2.37;2.17;;;;;;;-142.65;85.76;50172.78;5094105;28;20676;-71
2022/09/16 06:43:47;;;;;;;2.57;2.03;;;;;;;-142.65;86.17;50170.78;5093766;28;20200;-72
2022/09/16 06:46:16;;;;;;;2.80;2.60;;;;;;;-142.65;86.09;50174.75;5093452;28;20674;-72
2022/09/16 06:48:51;;;;;;;8.13;2.50;;;;;;;-142.65;86.02;50168.78;5093659;28;20583;-71
2022/09/16 06:51:21;;;;;;;3.90;2.50;;;;;;;-142.65;86.12;50168.78;5093900;28;20178;-71
2022/09/16 06:53:49;;;;;;;4.73;2.83;;;;;;;-142.65;86.47;50180.75;5093418;28;20185;-72
2022/09/16 06:56:17;;;;;;;2.80;2.70;;;;;;;;;;5093400;28;20194;-72
2022/09/16 06:58:50;;;;;;;5.70;2.60;;;;;;;-142.65;86.63;50162.81;5093551;28;20559;-72
2022/09/16 07:01:20;;;;;;;5.10;2.50;;;;;;;-142.65;86.69;50168.78;5093614;28;20197;-72
2022/09/16 07:03:48;;;;;;;2.40;2.40;;;;;;;;;;5093328;28;20193;-72
2022/09/16 07:06:15;;;;;;;2.70;2.50;;;;;;;-142.65;86.31;50170.78;5093281;28;20190;-72
2022/09/16 07:08:43;;;;;;;2.47;2.20;;;;;;;-142.65;86.44;50162.81;5097008;28;20210;-72
2022/09/16 07:11:13;;;;;;;3.53;2.73;;;;;;;;;;5097336;28;20197;-72
2022/09/16 07:13:41;;;;;;;2.27;2.00;;;;;;;;;;5097870;28;20195;-73
2022/09/16 07:16:10;;;;;;;2.50;2.50;;;;;;;-142.65;85.63;50164.81;5097671;28;20190;-72
2022/09/16 07:18:40;;;;;;;5.27;2.73;;;;;;;-142.65;85.84;50164.81;5097617;28;20296;-72
2022/09/16 07:21:08;;;;;;;3.67;2.47;;;;;;;-142.65;85.88;50168.78;5097460;28;20194;-72
2022/09/16 07:23:36;;;;;;;5.90;2.67;;;;;;;-142.65;86.57;50162.81;5097266;28;20191;-72
2022/09/16 07:26:14;;;;;;;3.73;2.50;;;;;;;-142.65;85.51;50168.78;5097458;28;20189;-72
2022/09/16 07:28:42;;;;;;;2.53;2.43;;;;;;;-142.65;84.60;50170.78;5112466;28;20550;-71
2022/09/16 07:31:10;;;;;;;2.83;2.53;;;;;;;-142.65;84.60;50162.81;5115632;28;20186;-71
2022/09/16 07:33:38;;;;;;;2.50;2.30;;;;;;;;;;5116767;28;20601;-71
2022/09/16 07:36:06;;;;;;;3.17;2.30;;;;;;;-142.65;84.45;50176.75;5117464;28;20548;-72
2022/09/16 07:38:33;;;;;;;2.00;2.00;;;;;;;-142.65;83.17;50162.81;5117529;28;20552;-72
2022/09/16 07:41:13;;;;;;;2.10;1.93;;;;;;;-142.65;83.17;50174.75;5117529;28;20222;-72
2022/09/16 07:43:41;;;;;;;5.07;2.23;;;;;;;-142.65;84.12;50162.81;5117625;28;20179;-73
2022/09/16 07:46:09;;;;;;;6.70;2.10;;;;;;;-142.65;83.35;50170.78;5117205;28;20196;-72
2022/09/16 07:48:36;;;;;;;2.67;1.90;;;;;;;;;;5117143;28;20205;-72
2022/09/16 07:51:07;;;;;;;3.27;2.00;;;;;;;;;;5117364;28;20682;-72
2022/09/16 07:53:34;;;;;;;1.53;1.37;;;;;;;;;;5117267;28;20185;-73
2022/09/16 07:56:19;;;;;;;2.43;2.30;;;;;;;;;;5117271;28;20185;-73
2022/09/16 07:58:46;;;;;;;1.60;1.50;;;;;;;;;;5116943;28;20212;-73
2022/09/16 08:01:13;;;;;;;1.97;1.97;;;;;;;;;;5116829;28;20189;-72
2022/09/16 08:03:41;;;;;;;4.23;1.50;;;;;;;-142.65;82.22;50172.78;5116897;28;20551;-73
2022/09/16 08:06:11;;;;;;;1.40;1.40;;;;;;;-142.65;82.25;50168.78;5116851;28;20631;-74
2022/09/16 08:08:38;;;;;;;1.30;1.30;;;;;;;-142.65;81.55;50162.81;5117068;28;20201;-73
2022/09/16 08:11:05;;;;;;;3.17;1.60;;;;;;;-142.65;80.97;50170.78;5116637;28;20189;-73
2022/09/16 08:13:33;;;;;;;2.00;1.63;;;;;;;-142.65;80.92;50168.78;5116927;28;20515;-72
2022/09/16 08:16:07;;;;;;;7.83;1.60;;;;;;;-142.65;79.37;50168.78;5115092;28;20193;-72
2022/09/16 08:18:34;;;;;;;1.90;1.40;;;;;;;-142.65;79.95;50170.78;5116051;28;20209;-72
2022/09/16 08:21:13;;;;;;;1.20;1.20;;;;;;;-142.65;79.79;50164.81;5108572;28;20204;-72
2022/09/16 08:23:40;;;;;;;2.80;1.23;;;;;;;;;;5116765;28;20203;-72
2022/09/16 08:26:09;;;;;;;3.57;2.03;;;;;;;-142.65;78.32;50170.78;5116728;28;20188;-72
2022/09/16 08:28:38;;;;;;;1.47;1.47;;;;;;;-142.65;78.78;50162.81;5116661;28;20205;-72
2022/09/16 08:31:17;;;;;;;3.40;1.83;;;;;;;;;;5116467;28;20226;-72
2022/09/16 08:33:44;;;;;;;1.63;1.53;;;;;;;-142.65;77.21;50170.78;5116296;28;20188;-73
2022/09/16 08:36:16;;;;;;;5.60;1.43;;;;;;;-142.65;77.20;50162.81;5116262;28;20196;-72
2022/09/16 08:38:43;;;;;;;3.80;1.63;;;;;;;-142.65;77.31;50164.81;5116766;28;20212;-72
2022/09/16 08:41:12;;;;;;;1.40;1.30;;;;;;;;;;5116256;28;20193;-72
2022/09/16 08:43:42;;;;;;;1.43;1.37;;;;;;;;;;5116405;28;20678;-73
2022/09/16 08:46:20;;;;;;;5.57;1.43;;;;;;;-142.65;75.91;50170.78;5116347;28;20189;-73
2022/09/16 08:48:47;;;;;;;1.27;1.17;;;;;;;;;;5116136;28;20205;-74
2022/09/16 08:51:16;;;;;;;7.93;1.40;;;;;;;;;;5115928;28;20193;-72
2022/09/16 08:53:46;;;;;;;1.53;1.40;;;;;;;;;;5115892;28;20177;-72
2022/09/16 08:56:14;;;;;;;4.63;1.40;;;;;;;;;;5116183;28;20196;-73
2022/09/16 08:58:43;;;;;;;1.60;1.20;;;;;;;;;;5116364;28;20213;-73
2022/09/16 09:01:27;;;;;;;1.53;1.43;;;;;;;;;;5115761;28;20196;-73
2022/09/16 09:03:55;;;;;;;1.00;1.00;;;;;;;-142.65;72.99;50164.81;5116279;28;20181;-74
2022/09/16 09:06:24;;;;;;;1.00;1.00;;;;;;;-142.65;74.17;50164.81;5115910;28;20188;-72
2022/09/16 09:09:00;;;;;;;2.77;1.50;;;;;;;;;;5115571;28;20571;-74
2022/09/16 09:11:40;;;;;;;4.63;1.40;;;;;;;-142.65;76.49;50172.78;5115613;28;20185;-73
2022/09/16 09:14:26;;;;;;;1.53;1.20;;;;;;;;;;5116165;28;20201;-73
2022/09/16 09:17:11;;;;;;;1.13;1.03;;;;;;;;;;5115777;28;20189;-73
2022/09/16 09:19:43;;;;;;;1.60;1.50;;;;;;;;;;5115317;28;20227;-74
2022/09/16 09:22:16;;;;;;;1.30;1.30;;;;;;;;;;5115989;28;20229;-74
2022/09/16 09:25:08;;;;;;;1.80;1.30;;;;;;;-142.65;75.17;50168.78;5115639;28;20177;-74
2022/09/16 09:27:47;;;;;;;1.40;1.30;;;;;;;-142.65;75.23;50168.78;5115540;28;20177;-73
2022/09/16 09:30:23;;;;;;;1.30;1.30;;;;;;;;;;5114424;28;20177;-72
2022/09/16 09:33:08;;;;;;;3.63;1.60;;;;;;;-142.65;73.29;50170.78;5115522;28;20165;-72
2022/09/16 09:36:16;;;;;;;1.60;1.53;;;;;;;-142.65;72.44;50168.78;5115685;28;20604;-73
2022/09/16 09:38:52;;;;;;;1.30;1.20;;;;;;;;;;5115221;28;20205;-73
2022/09/16 09:41:37;;;;;;;1.13;1.07;;;;;;;;;;5115366;28;20180;-74
2022/09/16 09:44:37;;;;;;;1.50;1.13;;;;;;;-142.65;69.19;50170.78;5115447;28;20177;-73
2022/09/16 09:47:10;;;;;;;1.13;1.10;;;;;;;-142.65;68.32;50168.78;5115175;28;20181;-72
2022/09/16 09:49:42;;;;;;;1.40;1.30;;;;;;;-142.65;68.53;50164.81;5115031;28;20212;-72
2022/09/16 09:52:30;;;;;;;1.10;1.10;;;;;;;;;;5115162;28;20529;-72
2022/09/16 09:55:00;;;;;;;3.63;0.83;;;;;;;;;;5114733;28;20219;-72
2022/09/16 09:57:26;;;;;;;1.00;1.00;;;;;;;-142.65;70.31;50168.78;5114662;28;20193;-72
2022/09/16 10:00:09;;;;;;;1.10;1.10;;;;;;;-142.65;69.29;50182.72;5115003;28;20717;-72
2022/09/16 10:02:40;;;;;;;4.77;1.23;;;;;;;-142.65;67.73;50168.78;5114838;28;20232;-73
2022/09/16 10:05:26;;;;;;;2.23;1.10;;;;;;;;;;5114838;28;20222;-72
2022/09/16 10:08:15;;;;;;;2.33;1.30;;;;;;;-142.65;67.43;50162.81;5114461;28;20212;-72
2022/09/16 10:10:48;;;;;;;1.20;1.20;;;;;;;-142.65;68.82;50170.78;5114316;28;20170;-72
2022/09/16 10:13:16;;;;;;;1.10;0.90;;;;;;;-142.65;68.58;50168.78;5114914;28;20165;-73
2022/09/16 10:15:43;;;;;;;1.07;1.07;;;;;;;;;;5114385;28;20526;-72
2022/09/16 10:18:18;;;;;;;1.10;1.10;;;;;;;;;;5114458;28;20238;-73
2022/09/16 10:20:53;;;;;;;1.80;1.60;;;;;;;;;;5114855;28;20188;-72
2022/09/16 10:23:22;;;;;;;1.50;1.40;;;;;;;;;;5114488;28;20193;-73
2022/09/16 10:26:14;;;;;;;0.97;0.97;;;;;;;-142.65;68.53;50168.78;5114099;28;20181;-73
2022/09/16 10:28:40;;;;;;;1.53;1.43;;;;;;;-142.65;68.55;50168.78;5114193;28;20716;-72
2022/09/16 10:31:07;;;;;;;1.60;1.50;;;;;;;-142.65;68.55;50168.78;5114080;28;20201;-72
2022/09/16 10:33:39;;;;;;;1.60;1.20;;;;;;;-142.65;69.03;50168.78;5114012;28;20185;-72
2022/09/16 10:36:09;;;;;;;1.67;1.30;;;;;;;-142.65;70.15;50164.81;5114359;28;20260;-72
2022/09/16 10:38:41;;;;;;;1.30;1.30;;;;;;;-142.65;69.13;50168.78;5114018;28;20215;-74
2022/09/16 10:41:08;;;;;;;1.07;1.00;;;;;;;;;;5114049;28;20252;-73
2022/09/16 10:43:38;;;;;;;1.17;1.17;;;;;;;-142.65;66.63;50174.75;5114451;28;20681;-73
2022/09/16 10:46:04;;;;;;;1.30;1.30;;;;;;;;;;5114433;28;20548;-74
2022/09/16 10:48:33;;;;;;;2.63;1.20;;;;;;;-142.65;68.28;50168.78;5114082;28;20201;-74
2022/09/16 10:51:01;;;;;;;1.50;1.23;;;;;;;;;;5114070;28;20200;-74
2022/09/16 10:53:35;;;;;;;2.23;1.30;;;;;;;;;;5113874;28;20522;-73
2022/09/16 10:56:19;;;;;;;1.20;1.17;;;;;;;-142.65;69.07;50174.75;5114150;28;20235;-73
2022/09/16 10:58:46;;;;;;;1.20;1.20;;;;;;;-142.65;66.70;50164.81;5114038;28;20290;-72
2022/09/16 11:01:26;;;;;;;3.90;1.20;;;;;;;-142.65;67.17;50164.81;5096302;28;20525;-72
2022/09/16 11:04:02;;;;;;;1.67;1.17;;;;;;;;;;5113651;28;20197;-73
2022/09/16 11:06:50;;;;;;;3.70;1.00;;;;;;;-142.65;66.53;50162.81;5113936;28;20169;-73
2022/09/16 11:09:44;;;;;;;2.83;1.07;;;;;;;-142.65;65.98;50172.78;5113602;28;20205;-72
2022/09/16 11:12:29;;;;;;;0.93;0.93;;;;;;;;;;5113761;28;20188;-72
2022/09/16 11:15:20;;;;;;;1.17;1.00;;;;;;;-142.65;64.24;50162.81;5113490;28;20188;-73
2022/09/16 11:18:16;;;;;;;3.40;0.90;;;;;;;-142.65;64.12;50168.78;5113442;28;20201;-72
2022/09/16 11:21:03;;;;;;;0.90;0.90;;;;;;;-142.65;63.33;50164.81;5114065;28;20181;-74
2022/09/16 11:23:39;;;;;;;1.30;1.00;;;;;;;-142.65;62.85;50170.78;5113724;28;20197;-73
2022/09/16 11:26:25;;;;;;;1.00;1.00;;;;;;;-142.65;59.83;50162.81;5114086;28;20169;-73
2022/09/16 11:29:15;;;;;;;1.63;0.90;;;;;;;-142.65;60.31;50164.81;5113812;28;20219;-73
2022/09/16 11:32:03;;;;;;;1.33;1.20;;;;;;;-142.65;61.09;50172.78;5113645;28;20181;-72
2022/09/16 11:34:48;;;;;;;1.37;0.80;;;;;;;-142.65;60.72;50174.75;5113722;28;20169;-74
2022/09/16 11:37:24;;;;;;;2.87;1.20;;;;;;;-142.65;62.99;50174.75;5113443;28;20185;-75
2022/09/16 11:40:06;;;;;;;1.03;1.03;;;;;;;-142.65;61.96;50168.78;5113625;28;20184;-74
2022/09/16 11:42:46;;;;;;;1.00;1.00;;;;;;;-142.65;58.99;50164.81;5113307;28;20212;-73
2022/09/16 11:45:24;;;;;;;3.07;1.27;;;;;;;;;;5113635;28;20181;-73
2022/09/16 11:48:18;;;;;;;3.17;1.00;;;;;;;-142.65;64.83;50162.81;5113383;28;20196;-75
2022/09/16 11:50:47;;;;;;;1.87;1.10;;;;;;;;;;5095085;28;20635;-74
2022/09/16 11:53:17;;;;;;;3.40;1.53;;;;;;;;;;5114832;28;20188;-73
2022/09/16 11:55:53;;;;;;;5.20;1.77;;;;;;;-142.65;71.17;50170.78;5117628;28;20191;-73
2022/09/16 11:58:25;;;;;;;1.83;1.20;;;;;;;-142.65;75.19;50164.81;5117295;28;20564;-73
2022/09/16 12:00:56;;;;;;;3.07;1.10;;;;;;;-142.65;75.02;50168.78;5116969;28;20179;-72
2022/09/16 12:04:02;;;;;;;2.30;1.53;;;;;;;-142.65;74.67;50168.78;5117489;28;20670;-72
2022/09/16 12:06:32;;;;;;;1.67;1.57;;;;;;;;;;5109341;28;20201;-72
2022/09/16 12:09:21;;;;;;;1.77;1.60;;;;;;;-142.65;74.26;50172.78;5117093;28;20218;-72
2022/09/16 12:11:52;;;;;;;1.50;1.40;;;;;;;;;;5116743;28;20659;-73
2022/09/16 12:14:28;;;;;;;6.03;1.80;;;;;;;;;;5116980;28;20190;-73
2022/09/16 12:17:04;;;;;;;1.07;1.07;;;;;;;-142.65;74.90;50170.78;5116771;28;20347;-72
2022/09/16 12:19:34;;;;;;;0.90;0.90;;;;;;;;;;5117208;28;20209;-73
2022/09/16 12:22:04;;;;;;;0.73;0.70;;;;;;;;;;5116888;28;20184;-73
2022/09/16 12:24:51;;;;;;;2.53;0.70;;;;;;;-142.65;68.91;50176.75;5116779;28;20196;-72
2022/09/16 12:27:23;;;;;;;0.90;0.90;;;;;;;;;;5116679;28;20533;-71
2022/09/16 12:29:58;;;;;;;0.87;0.87;;;;;;;-142.65;70.09;50170.78;5116551;28;20185;-72
2022/09/16 12:32:46;;;;;;;1.10;1.10;;;;;;;-142.65;70.97;50170.78;5116637;28;20642;-72
2022/09/16 12:35:29;;;;;;;0.93;0.93;;;;;;;-142.65;71.89;50164.81;5116645;28;20177;-72
2022/09/16 12:37:57;;;;;;;0.80;0.80;;;;;;;;;;5116416;28;20205;-72